sensor_id;sensor_type;location;lat;lon;timestamp;P1;durP1;ratioP1;P2;durP2;ratioP2
55537;SDS011;41383;51.418;7.286;2023-06-14T00:01:24;12.30;;;9.90;;
55537;SDS011;41383;51.418;7.286;2023-06-14T00:03:50;24.75;;;11.75;;
55537;SDS011;41383;51.418;7.286;2023-06-14T00:06:15;18.65;;;10.88;;
55537;SDS011;41383;51.418;7.286;2023-06-14T00:08:40;14.27;;;10.43;;
55537;SDS011;41383;51.418;7.286;2023-06-14T00:11:07;18.65;;;11.77;;
55537;SDS011;41383;51.418;7.286;2023-06-14T00:13:32;14.35;;;10.00;;
55537;SDS011;41383;51.418;7.286;2023-06-14T00:15:58;14.63;;;10.43;;
55537;SDS011;41383;51.418;7.286;2023-06-14T00:18:23;21.15;;;10.93;;
55537;SDS011;41383;51.418;7.286;2023-06-14T00:20:49;19.50;;;11.02;;
55537;SDS011;41383;51.418;7.286;2023-06-14T00:23:15;12.40;;;9.45;;
55537;SDS011;41383;51.418;7.286;2023-06-14T00:25:40;20.80;;;11.30;;
55537;SDS011;41383;51.418;7.286;2023-06-14T00:28:05;13.77;;;11.20;;
55537;SDS011;41383;51.418;7.286;2023-06-14T00:30:31;16.15;;;10.52;;
55537;SDS011;41383;51.418;7.286;2023-06-14T00:32:56;16.57;;;10.30;;
55537;SDS011;41383;51.418;7.286;2023-06-14T00:35:22;16.17;;;10.27;;
55537;SDS011;41383;51.418;7.286;2023-06-14T00:37:47;15.40;;;11.90;;
55537;SDS011;41383;51.418;7.286;2023-06-14T00:40:12;13.40;;;10.67;;
55537;SDS011;41383;51.418;7.286;2023-06-14T00:42:37;20.97;;;11.33;;
55537;SDS011;41383;51.418;7.286;2023-06-14T00:45:03;20.02;;;11.60;;
55537;SDS011;41383;51.418;7.286;2023-06-14T00:47:29;18.55;;;12.07;;
55537;SDS011;41383;51.418;7.286;2023-06-14T00:49:54;14.27;;;10.52;;
55537;SDS011;41383;51.418;7.286;2023-06-14T00:52:21;17.65;;;10.73;;
55537;SDS011;41383;51.418;7.286;2023-06-14T00:54:49;14.93;;;11.23;;
55537;SDS011;41383;51.418;7.286;2023-06-14T00:57:14;22.60;;;10.23;;
55537;SDS011;41383;51.418;7.286;2023-06-14T00:59:46;17.93;;;10.97;;
55537;SDS011;41383;51.418;7.286;2023-06-14T01:02:12;15.27;;;11.32;;
55537;SDS011;41383;51.418;7.286;2023-06-14T01:04:39;18.77;;;11.07;;
55537;SDS011;41383;51.418;7.286;2023-06-14T01:15:35;18.38;;;11.43;;
55537;SDS011;41383;51.418;7.286;2023-06-14T01:18:04;16.90;;;11.23;;
55537;SDS011;41383;51.418;7.286;2023-06-14T01:20:31;20.70;;;10.52;;
55537;SDS011;41383;51.418;7.286;2023-06-14T01:22:58;13.85;;;10.10;;
55537;SDS011;41383;51.418;7.286;2023-06-14T01:25:24;18.65;;;11.43;;
55537;SDS011;41383;51.418;7.286;2023-06-14T01:27:51;18.00;;;11.27;;
55537;SDS011;41383;51.418;7.286;2023-06-14T01:30:18;18.58;;;12.70;;
55537;SDS011;41383;51.418;7.286;2023-06-14T01:32:46;17.00;;;12.95;;
55537;SDS011;41383;51.418;7.286;2023-06-14T01:35:12;26.23;;;13.95;;
55537;SDS011;41383;51.418;7.286;2023-06-14T01:37:37;20.27;;;13.35;;
55537;SDS011;41383;51.418;7.286;2023-06-14T01:40:05;17.25;;;12.93;;
55537;SDS011;41383;51.418;7.286;2023-06-14T01:42:33;15.98;;;11.13;;
55537;SDS011;41383;51.418;7.286;2023-06-14T01:45:01;20.70;;;11.65;;
55537;SDS011;41383;51.418;7.286;2023-06-14T01:47:28;18.45;;;10.40;;
55537;SDS011;41383;51.418;7.286;2023-06-14T01:49:54;15.57;;;10.75;;
55537;SDS011;41383;51.418;7.286;2023-06-14T01:52:20;18.52;;;10.55;;
55537;SDS011;41383;51.418;7.286;2023-06-14T01:54:47;16.80;;;10.80;;
55537;SDS011;41383;51.418;7.286;2023-06-14T01:57:12;16.63;;;10.00;;
55537;SDS011;41383;51.418;7.286;2023-06-14T01:59:38;15.67;;;9.23;;
55537;SDS011;41383;51.418;7.286;2023-06-14T02:02:03;18.67;;;10.13;;
55537;SDS011;41383;51.418;7.286;2023-06-14T02:04:28;14.82;;;10.70;;
55537;SDS011;41383;51.418;7.286;2023-06-14T02:06:54;13.80;;;10.17;;
55537;SDS011;41383;51.418;7.286;2023-06-14T02:09:19;14.93;;;10.38;;
55537;SDS011;41383;51.418;7.286;2023-06-14T02:11:44;15.27;;;10.93;;
55537;SDS011;41383;51.418;7.286;2023-06-14T02:14:10;20.47;;;10.77;;
55537;SDS011;41383;51.418;7.286;2023-06-14T02:16:36;17.67;;;9.60;;
55537;SDS011;41383;51.418;7.286;2023-06-14T02:19:03;16.42;;;10.63;;
55537;SDS011;41383;51.418;7.286;2023-06-14T02:21:29;15.43;;;10.07;;
55537;SDS011;41383;51.418;7.286;2023-06-14T02:23:54;15.15;;;9.70;;
55537;SDS011;41383;51.418;7.286;2023-06-14T02:26:20;15.73;;;9.67;;
55537;SDS011;41383;51.418;7.286;2023-06-14T02:28:45;17.48;;;10.45;;
55537;SDS011;41383;51.418;7.286;2023-06-14T02:31:10;15.97;;;10.17;;
55537;SDS011;41383;51.418;7.286;2023-06-14T02:33:35;19.10;;;9.93;;
55537;SDS011;41383;51.418;7.286;2023-06-14T02:36:01;16.73;;;10.40;;
55537;SDS011;41383;51.418;7.286;2023-06-14T02:38:27;20.45;;;10.70;;
55537;SDS011;41383;51.418;7.286;2023-06-14T02:40:53;14.30;;;9.57;;
55537;SDS011;41383;51.418;7.286;2023-06-14T02:43:18;17.07;;;9.90;;
55537;SDS011;41383;51.418;7.286;2023-06-14T02:45:43;16.07;;;8.80;;
55537;SDS011;41383;51.418;7.286;2023-06-14T02:48:08;23.53;;;9.60;;
55537;SDS011;41383;51.418;7.286;2023-06-14T02:50:34;18.17;;;10.02;;
55537;SDS011;41383;51.418;7.286;2023-06-14T02:53:00;22.67;;;8.43;;
55537;SDS011;41383;51.418;7.286;2023-06-14T02:55:25;19.70;;;10.27;;
55537;SDS011;41383;51.418;7.286;2023-06-14T02:57:51;16.33;;;10.48;;
55537;SDS011;41383;51.418;7.286;2023-06-14T03:00:18;13.90;;;8.88;;
55537;SDS011;41383;51.418;7.286;2023-06-14T03:02:44;15.15;;;9.73;;
55537;SDS011;41383;51.418;7.286;2023-06-14T03:05:10;16.42;;;9.63;;
55537;SDS011;41383;51.418;7.286;2023-06-14T03:07:36;19.38;;;9.95;;
55537;SDS011;41383;51.418;7.286;2023-06-14T03:10:05;17.42;;;9.35;;
55537;SDS011;41383;51.418;7.286;2023-06-14T03:12:33;16.25;;;9.68;;
55537;SDS011;41383;51.418;7.286;2023-06-14T03:14:58;21.20;;;10.43;;
55537;SDS011;41383;51.418;7.286;2023-06-14T03:17:26;15.82;;;8.95;;
55537;SDS011;41383;51.418;7.286;2023-06-14T03:19:54;14.15;;;7.57;;
55537;SDS011;41383;51.418;7.286;2023-06-14T03:22:20;19.92;;;9.60;;
55537;SDS011;41383;51.418;7.286;2023-06-14T03:24:46;13.98;;;8.55;;
55537;SDS011;41383;51.418;7.286;2023-06-14T03:27:12;13.93;;;8.63;;
55537;SDS011;41383;51.418;7.286;2023-06-14T03:29:39;17.70;;;9.93;;
55537;SDS011;41383;51.418;7.286;2023-06-14T03:32:04;21.73;;;10.73;;
55537;SDS011;41383;51.418;7.286;2023-06-14T03:34:30;14.82;;;9.63;;
55537;SDS011;41383;51.418;7.286;2023-06-14T03:36:55;17.67;;;9.65;;
55537;SDS011;41383;51.418;7.286;2023-06-14T03:39:21;22.50;;;10.63;;
55537;SDS011;41383;51.418;7.286;2023-06-14T03:41:46;23.05;;;12.20;;
55537;SDS011;41383;51.418;7.286;2023-06-14T03:44:13;21.73;;;11.02;;
55537;SDS011;41383;51.418;7.286;2023-06-14T03:46:40;17.45;;;10.88;;
55537;SDS011;41383;51.418;7.286;2023-06-14T03:49:05;16.47;;;9.83;;
55537;SDS011;41383;51.418;7.286;2023-06-14T03:51:31;12.37;;;8.40;;
55537;SDS011;41383;51.418;7.286;2023-06-14T03:53:56;15.50;;;8.98;;
55537;SDS011;41383;51.418;7.286;2023-06-14T03:56:21;15.40;;;8.37;;
55537;SDS011;41383;51.418;7.286;2023-06-14T03:58:47;13.98;;;8.85;;
55537;SDS011;41383;51.418;7.286;2023-06-14T04:01:12;25.07;;;8.20;;
55537;SDS011;41383;51.418;7.286;2023-06-14T04:03:37;21.77;;;8.90;;
55537;SDS011;41383;51.418;7.286;2023-06-14T04:06:03;21.90;;;8.38;;
55537;SDS011;41383;51.418;7.286;2023-06-14T04:08:30;15.43;;;8.10;;
55537;SDS011;41383;51.418;7.286;2023-06-14T04:10:56;12.35;;;7.50;;
55537;SDS011;41383;51.418;7.286;2023-06-14T04:13:21;11.83;;;7.67;;
55537;SDS011;41383;51.418;7.286;2023-06-14T04:15:46;11.80;;;7.10;;
55537;SDS011;41383;51.418;7.286;2023-06-14T04:18:12;16.23;;;8.02;;
55537;SDS011;41383;51.418;7.286;2023-06-14T04:20:37;18.88;;;7.43;;
55537;SDS011;41383;51.418;7.286;2023-06-14T04:23:13;13.95;;;7.88;;
55537;SDS011;41383;51.418;7.286;2023-06-14T04:25:40;11.27;;;7.57;;
55537;SDS011;41383;51.418;7.286;2023-06-14T04:28:05;16.10;;;7.15;;
55537;SDS011;41383;51.418;7.286;2023-06-14T04:30:33;15.63;;;7.10;;
55537;SDS011;41383;51.418;7.286;2023-06-14T04:33:00;14.80;;;7.38;;
55537;SDS011;41383;51.418;7.286;2023-06-14T04:35:25;15.75;;;8.45;;
55537;SDS011;41383;51.418;7.286;2023-06-14T04:37:50;13.77;;;7.77;;
55537;SDS011;41383;51.418;7.286;2023-06-14T04:40:15;13.60;;;8.07;;
55537;SDS011;41383;51.418;7.286;2023-06-14T04:42:41;16.13;;;7.43;;
55537;SDS011;41383;51.418;7.286;2023-06-14T04:45:09;13.63;;;7.95;;
55537;SDS011;41383;51.418;7.286;2023-06-14T04:47:36;9.43;;;7.05;;
55537;SDS011;41383;51.418;7.286;2023-06-14T04:50:02;11.40;;;6.82;;
55537;SDS011;41383;51.418;7.286;2023-06-14T04:52:28;12.63;;;6.75;;
55537;SDS011;41383;51.418;7.286;2023-06-14T04:54:54;15.07;;;7.07;;
55537;SDS011;41383;51.418;7.286;2023-06-14T04:57:20;12.52;;;7.40;;
55537;SDS011;41383;51.418;7.286;2023-06-14T04:59:47;10.63;;;6.78;;
55537;SDS011;41383;51.418;7.286;2023-06-14T05:02:13;9.38;;;6.35;;
55537;SDS011;41383;51.418;7.286;2023-06-14T05:04:39;15.77;;;6.28;;
55537;SDS011;41383;51.418;7.286;2023-06-14T05:07:07;30.73;;;8.43;;
55537;SDS011;41383;51.418;7.286;2023-06-14T05:09:34;17.67;;;7.47;;
55537;SDS011;41383;51.418;7.286;2023-06-14T05:11:59;27.00;;;7.50;;
55537;SDS011;41383;51.418;7.286;2023-06-14T05:14:25;19.48;;;8.23;;
55537;SDS011;41383;51.418;7.286;2023-06-14T05:16:50;11.45;;;6.63;;
55537;SDS011;41383;51.418;7.286;2023-06-14T05:19:16;19.00;;;7.63;;
55537;SDS011;41383;51.418;7.286;2023-06-14T05:21:42;24.50;;;7.95;;
55537;SDS011;41383;51.418;7.286;2023-06-14T05:24:08;13.77;;;7.35;;
55537;SDS011;41383;51.418;7.286;2023-06-14T05:26:34;18.55;;;8.48;;
55537;SDS011;41383;51.418;7.286;2023-06-14T05:29:00;13.93;;;7.63;;
55537;SDS011;41383;51.418;7.286;2023-06-14T05:31:26;13.88;;;6.85;;
55537;SDS011;41383;51.418;7.286;2023-06-14T05:33:52;23.27;;;7.47;;
55537;SDS011;41383;51.418;7.286;2023-06-14T05:36:18;13.90;;;7.60;;
55537;SDS011;41383;51.418;7.286;2023-06-14T05:38:43;16.27;;;7.68;;
55537;SDS011;41383;51.418;7.286;2023-06-14T05:41:10;17.35;;;7.20;;
55537;SDS011;41383;51.418;7.286;2023-06-14T05:43:35;18.27;;;6.55;;
55537;SDS011;41383;51.418;7.286;2023-06-14T05:46:00;18.88;;;6.55;;
55537;SDS011;41383;51.418;7.286;2023-06-14T05:48:26;15.53;;;7.03;;
55537;SDS011;41383;51.418;7.286;2023-06-14T05:50:51;13.53;;;6.90;;
55537;SDS011;41383;51.418;7.286;2023-06-14T05:53:16;16.23;;;5.77;;
55537;SDS011;41383;51.418;7.286;2023-06-14T05:55:41;16.02;;;7.13;;
55537;SDS011;41383;51.418;7.286;2023-06-14T05:58:07;15.80;;;6.70;;
55537;SDS011;41383;51.418;7.286;2023-06-14T06:00:32;13.07;;;6.67;;
55537;SDS011;41383;51.418;7.286;2023-06-14T06:02:57;21.70;;;7.07;;
55537;SDS011;41383;51.418;7.286;2023-06-14T06:05:22;22.50;;;6.10;;
55537;SDS011;41383;51.418;7.286;2023-06-14T06:07:48;13.43;;;6.30;;
55537;SDS011;41383;51.418;7.286;2023-06-14T06:10:14;12.32;;;5.57;;
55537;SDS011;41383;51.418;7.286;2023-06-14T06:12:40;12.75;;;6.15;;
55537;SDS011;41383;51.418;7.286;2023-06-14T06:15:06;12.27;;;5.07;;
55537;SDS011;41383;51.418;7.286;2023-06-14T06:17:32;12.23;;;6.28;;
55537;SDS011;41383;51.418;7.286;2023-06-14T06:19:58;11.18;;;5.70;;
55537;SDS011;41383;51.418;7.286;2023-06-14T06:22:23;10.23;;;5.77;;
55537;SDS011;41383;51.418;7.286;2023-06-14T06:24:48;9.35;;;5.68;;
55537;SDS011;41383;51.418;7.286;2023-06-14T06:27:13;10.57;;;5.40;;
55537;SDS011;41383;51.418;7.286;2023-06-14T06:29:41;10.88;;;5.88;;
55537;SDS011;41383;51.418;7.286;2023-06-14T06:32:08;9.65;;;5.03;;
55537;SDS011;41383;51.418;7.286;2023-06-14T06:34:34;11.70;;;5.65;;
55537;SDS011;41383;51.418;7.286;2023-06-14T06:37:00;9.95;;;4.40;;
55537;SDS011;41383;51.418;7.286;2023-06-14T06:39:26;10.40;;;4.77;;
55537;SDS011;41383;51.418;7.286;2023-06-14T06:41:51;7.88;;;4.35;;
55537;SDS011;41383;51.418;7.286;2023-06-14T06:44:16;9.77;;;4.60;;
55537;SDS011;41383;51.418;7.286;2023-06-14T06:46:43;8.03;;;4.03;;
55537;SDS011;41383;51.418;7.286;2023-06-14T06:49:08;10.18;;;3.90;;
55537;SDS011;41383;51.418;7.286;2023-06-14T06:51:34;7.65;;;3.50;;
55537;SDS011;41383;51.418;7.286;2023-06-14T06:54:01;6.53;;;3.70;;
55537;SDS011;41383;51.418;7.286;2023-06-14T06:56:27;8.77;;;3.42;;
55537;SDS011;41383;51.418;7.286;2023-06-14T06:58:52;10.13;;;3.70;;
55537;SDS011;41383;51.418;7.286;2023-06-14T07:01:18;8.90;;;3.47;;
55537;SDS011;41383;51.418;7.286;2023-06-14T07:03:44;10.18;;;3.75;;
55537;SDS011;41383;51.418;7.286;2023-06-14T07:06:10;7.80;;;4.50;;
55537;SDS011;41383;51.418;7.286;2023-06-14T07:08:35;6.73;;;4.07;;
55537;SDS011;41383;51.418;7.286;2023-06-14T07:11:00;9.20;;;5.32;;
55537;SDS011;41383;51.418;7.286;2023-06-14T07:13:26;7.40;;;4.55;;
55537;SDS011;41383;51.418;7.286;2023-06-14T07:15:54;13.20;;;3.83;;
55537;SDS011;41383;51.418;7.286;2023-06-14T07:18:20;7.63;;;4.85;;
55537;SDS011;41383;51.418;7.286;2023-06-14T07:20:47;9.80;;;4.65;;
55537;SDS011;41383;51.418;7.286;2023-06-14T07:23:12;7.70;;;3.70;;
55537;SDS011;41383;51.418;7.286;2023-06-14T07:25:37;6.23;;;4.27;;
55537;SDS011;41383;51.418;7.286;2023-06-14T07:28:03;7.47;;;3.60;;
55537;SDS011;41383;51.418;7.286;2023-06-14T07:30:28;11.73;;;4.45;;
55537;SDS011;41383;51.418;7.286;2023-06-14T07:32:55;20.77;;;3.95;;
55537;SDS011;41383;51.418;7.286;2023-06-14T07:35:20;7.10;;;4.53;;
55537;SDS011;41383;51.418;7.286;2023-06-14T07:37:45;6.90;;;4.00;;
55537;SDS011;41383;51.418;7.286;2023-06-14T07:40:12;16.58;;;4.65;;
55537;SDS011;41383;51.418;7.286;2023-06-14T07:42:38;7.78;;;4.20;;
55537;SDS011;41383;51.418;7.286;2023-06-14T07:45:03;12.57;;;4.80;;
55537;SDS011;41383;51.418;7.286;2023-06-14T07:47:29;8.25;;;3.75;;
55537;SDS011;41383;51.418;7.286;2023-06-14T07:49:54;9.90;;;3.93;;
55537;SDS011;41383;51.418;7.286;2023-06-14T07:52:20;8.60;;;4.40;;
55537;SDS011;41383;51.418;7.286;2023-06-14T07:54:45;8.43;;;4.28;;
55537;SDS011;41383;51.418;7.286;2023-06-14T07:57:10;7.23;;;4.33;;
55537;SDS011;41383;51.418;7.286;2023-06-14T07:59:36;8.27;;;4.05;;
55537;SDS011;41383;51.418;7.286;2023-06-14T08:02:01;11.13;;;5.53;;
55537;SDS011;41383;51.418;7.286;2023-06-14T08:04:26;11.90;;;4.37;;
55537;SDS011;41383;51.418;7.286;2023-06-14T08:06:52;7.97;;;3.77;;
55537;SDS011;41383;51.418;7.286;2023-06-14T08:09:17;11.33;;;3.17;;
55537;SDS011;41383;51.418;7.286;2023-06-14T08:11:42;6.80;;;4.20;;
55537;SDS011;41383;51.418;7.286;2023-06-14T08:14:08;7.65;;;3.97;;
55537;SDS011;41383;51.418;7.286;2023-06-14T08:16:33;6.97;;;3.75;;
55537;SDS011;41383;51.418;7.286;2023-06-14T08:18:58;9.43;;;4.07;;
55537;SDS011;41383;51.418;7.286;2023-06-14T08:21:24;5.70;;;2.90;;
55537;SDS011;41383;51.418;7.286;2023-06-14T08:23:53;6.35;;;2.95;;
55537;SDS011;41383;51.418;7.286;2023-06-14T08:26:19;9.47;;;3.60;;
55537;SDS011;41383;51.418;7.286;2023-06-14T08:28:44;6.00;;;2.77;;
55537;SDS011;41383;51.418;7.286;2023-06-14T08:31:09;4.70;;;2.80;;
55537;SDS011;41383;51.418;7.286;2023-06-14T08:33:34;8.30;;;3.43;;
55537;SDS011;41383;51.418;7.286;2023-06-14T08:35:59;8.23;;;3.67;;
55537;SDS011;41383;51.418;7.286;2023-06-14T08:38:25;7.10;;;3.95;;
55537;SDS011;41383;51.418;7.286;2023-06-14T08:40:50;6.35;;;3.40;;
55537;SDS011;41383;51.418;7.286;2023-06-14T08:43:17;5.75;;;3.28;;
55537;SDS011;41383;51.418;7.286;2023-06-14T08:45:43;6.53;;;2.97;;
55537;SDS011;41383;51.418;7.286;2023-06-14T08:48:13;9.30;;;2.92;;
55537;SDS011;41383;51.418;7.286;2023-06-14T08:50:42;7.80;;;3.28;;
55537;SDS011;41383;51.418;7.286;2023-06-14T08:53:11;6.53;;;2.75;;
55537;SDS011;41383;51.418;7.286;2023-06-14T08:55:45;5.75;;;2.80;;
55537;SDS011;41383;51.418;7.286;2023-06-14T08:58:10;4.90;;;2.57;;
55537;SDS011;41383;51.418;7.286;2023-06-14T09:00:39;16.25;;;4.32;;
55537;SDS011;41383;51.418;7.286;2023-06-14T09:03:06;7.65;;;3.55;;
55537;SDS011;41383;51.418;7.286;2023-06-14T09:05:38;5.85;;;2.58;;
55537;SDS011;41383;51.418;7.286;2023-06-14T09:08:03;4.70;;;2.40;;
55537;SDS011;41383;51.418;7.286;2023-06-14T09:10:30;6.40;;;2.50;;
55537;SDS011;41383;51.418;7.286;2023-06-14T09:12:58;10.23;;;2.42;;
55537;SDS011;41383;51.418;7.286;2023-06-14T09:15:25;5.75;;;2.85;;
55537;SDS011;41383;51.418;7.286;2023-06-14T09:17:51;6.07;;;2.63;;
55537;SDS011;41383;51.418;7.286;2023-06-14T09:20:16;5.35;;;2.78;;
55537;SDS011;41383;51.418;7.286;2023-06-14T09:22:43;6.63;;;2.60;;
55537;SDS011;41383;51.418;7.286;2023-06-14T09:25:09;7.05;;;3.13;;
55537;SDS011;41383;51.418;7.286;2023-06-14T09:27:34;4.38;;;2.38;;
55537;SDS011;41383;51.418;7.286;2023-06-14T09:30:00;11.15;;;2.97;;
55537;SDS011;41383;51.418;7.286;2023-06-14T09:32:27;12.27;;;2.65;;
55537;SDS011;41383;51.418;7.286;2023-06-14T09:34:52;4.53;;;2.05;;
55537;SDS011;41383;51.418;7.286;2023-06-14T09:37:30;4.37;;;2.20;;
55537;SDS011;41383;51.418;7.286;2023-06-14T09:39:57;6.32;;;2.28;;
55537;SDS011;41383;51.418;7.286;2023-06-14T09:42:22;6.20;;;2.05;;
55537;SDS011;41383;51.418;7.286;2023-06-14T09:44:50;6.53;;;2.60;;
55537;SDS011;41383;51.418;7.286;2023-06-14T09:47:16;4.93;;;2.83;;
55537;SDS011;41383;51.418;7.286;2023-06-14T09:49:42;10.23;;;2.40;;
55537;SDS011;41383;51.418;7.286;2023-06-14T09:52:12;5.38;;;2.65;;
55537;SDS011;41383;51.418;7.286;2023-06-14T09:54:40;8.18;;;2.85;;
55537;SDS011;41383;51.418;7.286;2023-06-14T09:57:11;4.10;;;2.40;;
55537;SDS011;41383;51.418;7.286;2023-06-14T09:59:41;18.08;;;3.00;;
55537;SDS011;41383;51.418;7.286;2023-06-14T10:02:31;5.53;;;2.90;;
55537;SDS011;41383;51.418;7.286;2023-06-14T10:07:40;14.15;;;3.63;;
55537;SDS011;41383;51.418;7.286;2023-06-14T10:10:24;9.27;;;2.78;;
55537;SDS011;41383;51.418;7.286;2023-06-14T10:12:50;4.75;;;2.42;;
55537;SDS011;41383;51.418;7.286;2023-06-14T10:15:20;7.15;;;2.55;;
55537;SDS011;41383;51.418;7.286;2023-06-14T10:17:57;4.35;;;2.45;;
55537;SDS011;41383;51.418;7.286;2023-06-14T10:20:44;5.50;;;2.58;;
55537;SDS011;41383;51.418;7.286;2023-06-14T10:23:34;5.60;;;2.70;;
55537;SDS011;41383;51.418;7.286;2023-06-14T10:26:02;5.03;;;2.22;;
55537;SDS011;41383;51.418;7.286;2023-06-14T10:28:28;6.80;;;2.60;;
55537;SDS011;41383;51.418;7.286;2023-06-14T10:33:29;10.20;;;2.42;;
55537;SDS011;41383;51.418;7.286;2023-06-14T10:41:23;4.97;;;2.70;;
55537;SDS011;41383;51.418;7.286;2023-06-14T10:43:49;3.95;;;2.25;;
55537;SDS011;41383;51.418;7.286;2023-06-14T10:46:18;4.75;;;2.28;;
55537;SDS011;41383;51.418;7.286;2023-06-14T10:48:46;5.03;;;2.65;;
55537;SDS011;41383;51.418;7.286;2023-06-14T10:51:15;5.87;;;2.43;;
55537;SDS011;41383;51.418;7.286;2023-06-14T10:53:47;5.05;;;2.58;;
55537;SDS011;41383;51.418;7.286;2023-06-14T10:59:15;4.10;;;2.22;;
55537;SDS011;41383;51.418;7.286;2023-06-14T11:04:46;4.30;;;2.00;;
55537;SDS011;41383;51.418;7.286;2023-06-14T11:07:27;7.32;;;2.90;;
55537;SDS011;41383;51.418;7.286;2023-06-14T11:12:55;4.40;;;2.38;;
55537;SDS011;41383;51.418;7.286;2023-06-14T11:15:27;4.88;;;2.85;;
55537;SDS011;41383;51.418;7.286;2023-06-14T11:17:56;7.65;;;2.35;;
55537;SDS011;41383;51.418;7.286;2023-06-14T11:20:24;4.13;;;2.55;;
55537;SDS011;41383;51.418;7.286;2023-06-14T11:22:51;3.30;;;2.08;;
55537;SDS011;41383;51.418;7.286;2023-06-14T11:25:17;4.68;;;2.65;;
55537;SDS011;41383;51.418;7.286;2023-06-14T11:27:43;9.30;;;2.42;;
55537;SDS011;41383;51.418;7.286;2023-06-14T11:30:09;5.47;;;2.40;;
55537;SDS011;41383;51.418;7.286;2023-06-14T11:32:35;5.28;;;2.83;;
55537;SDS011;41383;51.418;7.286;2023-06-14T11:35:04;5.40;;;3.15;;
55537;SDS011;41383;51.418;7.286;2023-06-14T11:37:31;13.88;;;2.95;;
55537;SDS011;41383;51.418;7.286;2023-06-14T11:40:00;4.13;;;2.58;;
55537;SDS011;41383;51.418;7.286;2023-06-14T11:42:28;7.47;;;3.60;;
55537;SDS011;41383;51.418;7.286;2023-06-14T11:44:55;6.43;;;3.20;;
55537;SDS011;41383;51.418;7.286;2023-06-14T11:47:21;6.38;;;3.22;;
55537;SDS011;41383;51.418;7.286;2023-06-14T11:49:47;5.95;;;3.13;;
55537;SDS011;41383;51.418;7.286;2023-06-14T11:52:12;7.10;;;3.47;;
55537;SDS011;41383;51.418;7.286;2023-06-14T11:54:38;6.68;;;3.25;;
55537;SDS011;41383;51.418;7.286;2023-06-14T11:57:05;6.03;;;3.35;;
55537;SDS011;41383;51.418;7.286;2023-06-14T11:59:32;5.88;;;3.92;;
55537;SDS011;41383;51.418;7.286;2023-06-14T12:01:57;5.68;;;3.35;;
55537;SDS011;41383;51.418;7.286;2023-06-14T12:04:23;9.23;;;3.55;;
55537;SDS011;41383;51.418;7.286;2023-06-14T12:06:50;6.20;;;3.08;;
55537;SDS011;41383;51.418;7.286;2023-06-14T12:09:18;10.43;;;3.45;;
55537;SDS011;41383;51.418;7.286;2023-06-14T12:11:44;6.90;;;3.80;;
55537;SDS011;41383;51.418;7.286;2023-06-14T12:14:10;9.20;;;3.88;;
55537;SDS011;41383;51.418;7.286;2023-06-14T12:16:37;5.63;;;3.55;;
55537;SDS011;41383;51.418;7.286;2023-06-14T12:19:11;7.13;;;3.90;;
55537;SDS011;41383;51.418;7.286;2023-06-14T12:21:38;6.88;;;3.85;;
55537;SDS011;41383;51.418;7.286;2023-06-14T12:24:07;8.90;;;3.47;;
55537;SDS011;41383;51.418;7.286;2023-06-14T12:26:33;6.18;;;3.75;;
55537;SDS011;41383;51.418;7.286;2023-06-14T12:28:58;7.95;;;3.63;;
55537;SDS011;41383;51.418;7.286;2023-06-14T12:31:24;22.50;;;4.28;;
55537;SDS011;41383;51.418;7.286;2023-06-14T12:33:50;8.07;;;4.00;;
55537;SDS011;41383;51.418;7.286;2023-06-14T12:36:16;9.40;;;4.00;;
55537;SDS011;41383;51.418;7.286;2023-06-14T12:38:42;6.53;;;3.58;;
55537;SDS011;41383;51.418;7.286;2023-06-14T12:41:07;7.45;;;3.60;;
55537;SDS011;41383;51.418;7.286;2023-06-14T12:43:33;8.10;;;3.50;;
55537;SDS011;41383;51.418;7.286;2023-06-14T12:45:58;8.68;;;3.67;;
55537;SDS011;41383;51.418;7.286;2023-06-14T12:48:24;10.52;;;3.75;;
55537;SDS011;41383;51.418;7.286;2023-06-14T12:50:52;5.50;;;3.30;;
55537;SDS011;41383;51.418;7.286;2023-06-14T12:53:17;8.03;;;4.23;;
55537;SDS011;41383;51.418;7.286;2023-06-14T12:55:42;6.47;;;3.22;;
55537;SDS011;41383;51.418;7.286;2023-06-14T12:58:07;11.40;;;3.47;;
55537;SDS011;41383;51.418;7.286;2023-06-14T13:00:33;9.90;;;3.53;;
55537;SDS011;41383;51.418;7.286;2023-06-14T13:02:58;7.72;;;3.67;;
55537;SDS011;41383;51.418;7.286;2023-06-14T13:05:24;7.60;;;3.75;;
55537;SDS011;41383;51.418;7.286;2023-06-14T13:07:49;14.05;;;3.80;;
55537;SDS011;41383;51.418;7.286;2023-06-14T13:10:15;9.07;;;4.00;;
55537;SDS011;41383;51.418;7.286;2023-06-14T13:12:41;7.55;;;4.22;;
55537;SDS011;41383;51.418;7.286;2023-06-14T13:15:06;6.17;;;3.50;;
55537;SDS011;41383;51.418;7.286;2023-06-14T13:17:32;7.47;;;3.53;;
55537;SDS011;41383;51.418;7.286;2023-06-14T13:20:03;21.65;;;5.20;;
55537;SDS011;41383;51.418;7.286;2023-06-14T13:22:29;9.65;;;4.13;;
55537;SDS011;41383;51.418;7.286;2023-06-14T13:24:54;11.47;;;3.60;;
55537;SDS011;41383;51.418;7.286;2023-06-14T13:27:20;5.17;;;3.10;;
55537;SDS011;41383;51.418;7.286;2023-06-14T13:29:45;10.77;;;3.47;;
55537;SDS011;41383;51.418;7.286;2023-06-14T13:32:10;7.57;;;4.30;;
55537;SDS011;41383;51.418;7.286;2023-06-14T13:34:36;8.73;;;3.50;;
55537;SDS011;41383;51.418;7.286;2023-06-14T13:37:01;8.83;;;3.60;;
55537;SDS011;41383;51.418;7.286;2023-06-14T13:39:27;6.30;;;4.10;;
55537;SDS011;41383;51.418;7.286;2023-06-14T13:41:52;9.67;;;4.07;;
55537;SDS011;41383;51.418;7.286;2023-06-14T13:44:17;8.40;;;4.00;;
55537;SDS011;41383;51.418;7.286;2023-06-14T13:46:46;7.15;;;3.85;;
55537;SDS011;41383;51.418;7.286;2023-06-14T13:49:11;6.88;;;3.92;;
55537;SDS011;41383;51.418;7.286;2023-06-14T13:51:37;7.75;;;3.45;;
55537;SDS011;41383;51.418;7.286;2023-06-14T13:54:02;9.38;;;4.22;;
55537;SDS011;41383;51.418;7.286;2023-06-14T13:56:27;7.22;;;4.30;;
55537;SDS011;41383;51.418;7.286;2023-06-14T13:58:53;10.57;;;4.03;;
55537;SDS011;41383;51.418;7.286;2023-06-14T14:01:18;9.93;;;4.57;;
55537;SDS011;41383;51.418;7.286;2023-06-14T14:03:45;6.07;;;4.22;;
55537;SDS011;41383;51.418;7.286;2023-06-14T14:06:11;8.70;;;4.25;;
55537;SDS011;41383;51.418;7.286;2023-06-14T14:08:37;8.27;;;4.63;;
55537;SDS011;41383;51.418;7.286;2023-06-14T14:11:02;7.82;;;4.85;;
55537;SDS011;41383;51.418;7.286;2023-06-14T14:13:28;7.68;;;4.47;;
55537;SDS011;41383;51.418;7.286;2023-06-14T14:15:53;10.00;;;4.65;;
55537;SDS011;41383;51.418;7.286;2023-06-14T14:18:19;14.48;;;4.60;;
55537;SDS011;41383;51.418;7.286;2023-06-14T14:20:46;10.95;;;4.80;;
55537;SDS011;41383;51.418;7.286;2023-06-14T14:23:11;15.90;;;4.78;;
55537;SDS011;41383;51.418;7.286;2023-06-14T14:25:36;6.50;;;3.95;;
55537;SDS011;41383;51.418;7.286;2023-06-14T14:28:02;10.38;;;4.68;;
55537;SDS011;41383;51.418;7.286;2023-06-14T14:30:27;6.93;;;4.53;;
55537;SDS011;41383;51.418;7.286;2023-06-14T14:32:53;6.30;;;4.17;;
55537;SDS011;41383;51.418;7.286;2023-06-14T14:35:18;10.85;;;4.95;;
55537;SDS011;41383;51.418;7.286;2023-06-14T14:37:43;12.07;;;4.13;;
55537;SDS011;41383;51.418;7.286;2023-06-14T14:40:09;9.18;;;4.28;;
55537;SDS011;41383;51.418;7.286;2023-06-14T14:42:35;17.95;;;4.85;;
55537;SDS011;41383;51.418;7.286;2023-06-14T14:45:01;6.93;;;4.20;;
55537;SDS011;41383;51.418;7.286;2023-06-14T14:47:26;18.67;;;5.00;;
55537;SDS011;41383;51.418;7.286;2023-06-14T14:49:52;37.80;;;6.43;;
55537;SDS011;41383;51.418;7.286;2023-06-14T14:52:17;30.03;;;5.80;;
55537;SDS011;41383;51.418;7.286;2023-06-14T14:54:42;16.13;;;5.25;;
55537;SDS011;41383;51.418;7.286;2023-06-14T14:57:08;13.13;;;5.00;;
55537;SDS011;41383;51.418;7.286;2023-06-14T14:59:33;9.35;;;4.72;;
55537;SDS011;41383;51.418;7.286;2023-06-14T15:01:58;6.57;;;4.40;;